Terminal Aerodrome Forecast
Issued by NWS

Home | Current Version | Previous Version | Text Only | Print | Product List | Glossary On
Versions: 1 2 3 4 5 6 7 8 9 10 11 12 13 14 15 16 17 18 19 20 21 22
000
FTUS41 KBGM 181200 AAA
TAFELM
TAF AMD
KELM 181235Z 1813/1912 24004KT 1/2SM FG OVC002
      TEMPO 1813/1814 2SM BR SCT002 BKN050
     FM181400 36008KT P6SM SCT025 BKN040
     FM190000 02004KT P6SM SKC=

USA.gov is the U.S. government's official web portal to all federal, state and local government web resources and services.